Terminal Aerodrome Forecast
Issued by NWS Upton, NY

Home | Current Version | Previous Version | Text Only | Print | Product List | Glossary On
Versions: 1 2 3 4 5 6 7 8 9 10 11 12 13 14 15 16 17 18 19 20 21 22 23 24
000
FTUS41 KOKX 280800 AAA
TAFISP
TAF AMD
KISP 280831Z 2809/2906 22005KT P6SM BKN080 BKN250
     FM281200 24007KT P6SM SCT030 OVC050
     FM281400 26009KT P6SM -SHRA SCT030 OVC050
     FM281800 27009KT P6SM -SHRA SCT030 OVC050
      TEMPO 2818/2822 BKN030
     FM290000 29007KT P6SM SCT030 BKN050
     FM290400 33005KT P6SM SCT040 BKN100=

USA.gov is the U.S. government's official web portal to all federal, state and local government web resources and services.